createdAt,value
2019-04-07T00:03:05.614Z,17.50
2019-04-07T00:08:10.093Z,20.00
2019-04-07T00:13:14.033Z,24.00
2019-04-07T00:18:17.958Z,23.25
2019-04-07T00:23:21.795Z,19.50
2019-04-07T00:28:25.628Z,20.00
2019-04-07T00:33:29.426Z,23.40
2019-04-07T00:38:33.320Z,18.00
2019-04-07T00:43:37.058Z,18.60
2019-04-07T00:48:41.070Z,20.80
2019-04-07T00:53:45.431Z,19.00
2019-04-07T00:58:49.940Z,20.50
2019-04-07T01:03:54.643Z,17.25
2019-04-07T01:08:59.100Z,20.25
2019-04-07T01:14:03.123Z,18.20
2019-04-07T01:19:07.341Z,20.75
2019-04-07T01:24:11.130Z,20.50
2019-04-07T01:29:14.911Z,18.00
2019-04-07T01:34:18.711Z,19.25
2019-04-07T01:39:22.989Z,19.00
2019-04-07T01:44:49.695Z,19.25
2019-04-07T01:50:11.972Z,18.00
2019-04-07T01:55:43.875Z,19.20
2019-04-07T02:01:06.756Z,18.80
2019-04-07T02:06:33.214Z,17.50
2019-04-07T02:11:49.345Z,18.40
2019-04-07T02:17:18.088Z,17.60
2019-04-07T02:22:39.620Z,20.50
2019-04-07T02:27:52.128Z,18.00
2019-04-07T02:33:21.091Z,17.75
2019-04-07T02:38:30.335Z,17.80
2019-04-07T02:43:44.652Z,16.80
2019-04-07T02:49:14.172Z,17.50
2019-04-07T02:54:37.860Z,18.00
2019-04-07T02:59:53.364Z,17.00
2019-04-07T03:05:19.896Z,18.00
2019-04-07T03:10:55.476Z,18.00
2019-04-07T03:16:22.476Z,13.00
2019-04-07T03:21:57.815Z,17.50
2019-04-07T03:27:19.361Z,16.20
2019-04-07T03:32:54.197Z,17.20
2019-04-07T03:38:06.473Z,15.75
2019-04-07T03:43:23.907Z,16.25
2019-04-07T03:48:41.601Z,16.00
2019-04-07T03:54:07.677Z,16.00
2019-04-07T03:59:36.578Z,16.50
2019-04-07T04:04:59.709Z,15.00
2019-04-07T04:10:23.681Z,13.75
2019-04-07T04:15:53.191Z,16.75
2019-04-07T04:20:57.328Z,13.40
2019-04-07T04:26:02.385Z,14.50
2019-04-07T04:31:06.765Z,14.40
2019-04-07T04:36:10.644Z,16.75
2019-04-07T04:41:14.477Z,13.00
2019-04-07T04:46:18.620Z,13.20
2019-04-07T04:51:22.657Z,14.00
2019-04-07T04:56:26.454Z,14.75
2019-04-07T05:01:30.975Z,15.80
2019-04-07T05:06:35.712Z,15.40
2019-04-07T05:11:39.522Z,16.00
2019-04-07T05:16:43.585Z,14.50
2019-04-07T05:21:47.420Z,15.50
2019-04-07T05:26:51.178Z,13.80
2019-04-07T05:31:55.679Z,18.00
2019-04-07T05:36:59.640Z,16.25
2019-04-07T05:42:03.538Z,15.50
2019-04-07T05:47:10.881Z,16.25
2019-04-07T05:52:13.904Z,16.00
2019-04-07T05:57:18.559Z,12.75
2019-04-07T06:02:22.468Z,18.00
2019-04-07T06:07:30.253Z,14.50
2019-04-07T06:12:31.774Z,14.25
2019-04-07T06:17:35.803Z,15.00
2019-04-07T06:22:40.434Z,12.00
2019-04-07T06:27:45.224Z,15.75
2019-04-07T06:32:50.513Z,12.75
2019-04-07T06:37:56.886Z,13.80
2019-04-07T06:43:01.588Z,13.40
2019-04-07T06:48:08.221Z,13.75
2019-04-07T06:53:29.208Z,14.00
2019-04-07T06:58:51.487Z,12.25
2019-04-07T07:04:14.003Z,62.25
2019-04-07T07:09:33.333Z,65.25
2019-04-07T07:15:03.431Z,60.00
2019-04-07T07:20:28.711Z,55.25
2019-04-07T07:25:33.254Z,52.00
2019-04-07T07:30:37.188Z,54.00
2019-04-07T07:35:40.992Z,49.50
2019-04-07T07:40:47.418Z,45.00
2019-04-07T07:45:51.235Z,45.00
2019-04-07T07:50:55.820Z,41.40
2019-04-07T07:55:59.746Z,42.60
2019-04-07T08:01:04.301Z,39.75
2019-04-07T08:06:08.455Z,38.60
2019-04-07T08:11:15.337Z,40.25
2019-04-07T08:16:18.566Z,36.80
2019-04-07T08:21:23.557Z,35.80
2019-04-07T08:26:27.853Z,35.50
2019-04-07T08:31:31.701Z,33.00
2019-04-07T08:36:35.503Z,34.75
2019-04-07T08:41:41.381Z,28.00
2019-04-07T08:46:45.403Z,32.25
2019-04-07T08:51:51.058Z,32.00
2019-04-07T08:56:56.824Z,29.25
2019-04-07T09:02:00.393Z,28.50
2019-04-07T09:07:05.133Z,29.00
2019-04-07T09:12:09.268Z,26.00
2019-04-07T09:17:32.143Z,25.80
2019-04-07T09:22:56.662Z,30.20
2019-04-07T09:28:21.246Z,27.00
2019-04-07T09:33:49.297Z,24.60
2019-04-07T09:39:20.269Z,23.50
2019-04-07T09:44:38.886Z,24.25
2019-04-07T09:50:01.642Z,23.75
2019-04-07T09:55:37.870Z,25.80
2019-04-07T10:00:51.248Z,43.50
2019-04-07T10:06:02.947Z,38.25
2019-04-07T10:11:19.731Z,35.80
2019-04-07T10:16:45.794Z,35.50
2019-04-07T10:22:04.347Z,38.00
2019-04-07T10:27:31.284Z,34.60
2019-04-07T10:32:53.163Z,40.25
2019-04-07T10:38:01.967Z,33.50
2019-04-07T10:43:23.997Z,40.00
2019-04-07T10:48:40.158Z,35.00
2019-04-07T10:54:03.738Z,34.75
2019-04-07T10:59:29.145Z,33.50
2019-04-07T11:04:47.441Z,35.50
2019-04-07T11:10:01.235Z,37.75
2019-04-07T11:15:25.927Z,37.40
2019-04-07T11:20:43.369Z,33.60
2019-04-07T11:26:13.481Z,37.80
2019-04-07T11:31:39.471Z,36.40
2019-04-07T11:37:06.288Z,33.80
2019-04-07T11:42:28.537Z,41.25
2019-04-07T11:47:50.150Z,42.25
2019-04-07T11:53:16.722Z,44.00
2019-04-07T11:58:35.706Z,45.25
2019-04-07T12:03:46.440Z,42.67
2019-04-07T12:09:06.524Z,44.67
2019-04-07T12:14:41.752Z,39.25
2019-04-07T12:19:56.922Z,40.50
2019-04-07T12:25:18.985Z,42.00
2019-04-07T12:30:54.538Z,46.20
2019-04-07T12:36:16.272Z,42.25
2019-04-07T12:41:29.774Z,46.80
2019-04-07T12:47:03.704Z,38.40
2019-04-07T12:52:31.173Z,42.25
2019-04-07T12:57:42.529Z,41.20
2019-04-07T13:02:58.490Z,37.00
2019-04-07T13:08:11.094Z,36.25
2019-04-07T13:13:34.085Z,36.50
2019-04-07T13:18:50.916Z,37.20
2019-04-07T13:24:13.340Z,37.00
2019-04-07T13:29:40.921Z,36.25
2019-04-07T13:35:02.669Z,33.75
2019-04-07T13:40:44.102Z,35.40
2019-04-07T13:46:22.206Z,36.50
2019-04-07T13:51:44.801Z,38.00
2019-04-07T13:57:25.605Z,35.40
2019-04-07T14:02:35.580Z,36.75
2019-04-07T14:07:51.795Z,38.50
2019-04-07T14:13:29.997Z,34.75
2019-04-07T14:18:46.864Z,36.75
2019-04-07T14:24:03.617Z,38.75
2019-04-07T14:29:28.387Z,39.40
2019-04-07T14:34:50.924Z,37.50
2019-04-07T14:40:01.016Z,39.50
2019-04-07T14:45:24.347Z,41.00
2019-04-07T14:50:39.617Z,39.20
2019-04-07T14:55:56.008Z,40.75
2019-04-07T15:01:18.092Z,41.40
2019-04-07T15:06:22.834Z,45.20
2019-04-07T15:11:31.237Z,42.00
2019-04-07T15:16:36.684Z,45.00
2019-04-07T15:21:41.201Z,41.75
2019-04-07T15:26:49.497Z,44.00
2019-04-07T15:31:51.885Z,42.75
2019-04-07T15:36:56.849Z,40.50
2019-04-07T15:42:00.984Z,43.25
2019-04-07T15:47:05.036Z,39.60
2019-04-07T15:52:09.954Z,44.00
2019-04-07T15:57:15.001Z,42.75
2019-04-07T16:02:19.306Z,42.00
2019-04-07T16:07:23.303Z,40.80
2019-04-07T16:12:27.101Z,43.60
2019-04-07T16:17:33.860Z,43.40
2019-04-07T16:22:36.719Z,42.20
2019-04-07T16:27:40.903Z,48.00
2019-04-07T16:32:44.979Z,44.00
2019-04-07T16:37:48.874Z,44.25
2019-04-07T16:43:05.479Z,44.50
2019-04-07T16:47:58.820Z,43.75
2019-04-07T16:53:04.408Z,44.00
2019-04-07T16:58:08.461Z,41.50
2019-04-07T17:03:13.179Z,41.40
2019-04-07T17:08:19.619Z,42.20
2019-04-07T17:13:31.393Z,41.20
2019-04-07T17:18:41.338Z,44.75
2019-04-07T17:23:45.623Z,40.00
2019-04-07T17:28:49.982Z,44.75
2019-04-07T17:33:54.070Z,40.80
2019-04-07T17:39:15.801Z,42.50
2019-04-07T17:44:39.153Z,38.00
2019-04-07T17:50:11.196Z,38.25
2019-04-07T17:55:33.144Z,41.80
2019-04-07T18:01:01.835Z,38.50
2019-04-07T18:06:24.944Z,39.75
2019-04-07T18:11:37.924Z,41.25
2019-04-07T18:17:09.734Z,37.00
2019-04-07T18:22:31.564Z,36.75
2019-04-07T18:27:48.249Z,36.80
2019-04-07T18:32:58.657Z,42.60
2019-04-07T18:38:30.835Z,35.33
2019-04-07T18:44:00.748Z,36.60
2019-04-07T18:49:16.957Z,38.75
2019-04-07T18:54:48.749Z,39.00
2019-04-07T19:00:14.778Z,36.60
2019-04-07T19:05:40.700Z,36.80
2019-04-07T19:11:26.109Z,36.25
2019-04-07T19:16:49.299Z,36.25
2019-04-07T19:22:21.265Z,36.50
2019-04-07T19:28:00.147Z,36.00
2019-04-07T19:33:23.931Z,37.25
2019-04-07T19:38:45.360Z,38.00
2019-04-07T19:44:09.459Z,38.00
2019-04-07T19:49:30.344Z,35.00
2019-04-07T19:55:08.518Z,35.50
2019-04-07T20:00:30.586Z,34.75
2019-04-07T20:05:58.500Z,34.75
2019-04-07T20:11:39.986Z,34.75
2019-04-07T20:16:55.963Z,37.75
2019-04-07T20:22:06.868Z,34.25
2019-04-07T20:27:33.890Z,33.60
2019-04-07T20:32:46.995Z,33.75
2019-04-07T20:38:15.926Z,35.50
2019-04-07T20:43:28.518Z,35.50
2019-04-07T20:48:54.096Z,34.75
2019-04-07T20:54:11.169Z,33.75
2019-04-07T20:59:26.929Z,32.75
2019-04-07T21:04:43.867Z,34.50
2019-04-07T21:10:09.565Z,36.40
2019-04-07T21:15:30.556Z,28.75
2019-04-07T21:20:57.400Z,32.40
2019-04-07T21:26:07.946Z,33.25
2019-04-07T21:31:19.795Z,30.25
2019-04-07T21:36:33.062Z,29.00
2019-04-07T21:41:59.191Z,28.25
2019-04-07T21:47:29.032Z,30.20
2019-04-07T21:53:01.300Z,30.60
2019-04-07T21:58:13.006Z,28.75
2019-04-07T22:03:54.593Z,27.75
2019-04-07T22:09:03.325Z,30.50
2019-04-07T22:14:07.773Z,29.20
2019-04-07T22:19:14.774Z,31.50
2019-04-07T22:24:17.380Z,28.00
2019-04-07T22:29:22.400Z,25.50
2019-04-07T22:34:29.856Z,27.40
2019-04-07T22:39:32.137Z,27.50
2019-04-07T22:44:36.040Z,25.50
2019-04-07T22:49:41.468Z,28.20
2019-04-07T22:54:45.374Z,26.50
2019-04-07T22:59:49.208Z,28.60
2019-04-07T23:04:52.994Z,28.75
2019-04-07T23:09:57.821Z,28.75
2019-04-07T23:15:03.620Z,28.25
2019-04-07T23:20:08.950Z,27.80
2019-04-07T23:25:12.841Z,28.20
2019-04-07T23:30:17.335Z,26.80
2019-04-07T23:35:22.181Z,26.00
2019-04-07T23:40:26.068Z,22.60
2019-04-07T23:52:04.778Z,29.00
2019-04-07T23:57:08.712Z,26.00
